Time;durP1;ratioP1;P1;durP2;ratioP2;P2;SDS_P1;SDS_P2;PMS_P1;PMS_P2;Temp;Humidity;BMP_temperature;BMP_pressure;BME280_temperature;BME280_humidity;BME280_pressure;Samples;Min_cycle;Max_cycle;Signal;HPM_P1;HPM_P2
2023/08/09 00:03:02;;;;;;;1.37;1.00;;;;;;;15.26;100.00;97794.81;18442502;32;20077;-58
2023/08/09 00:13:05;;;;;;;3.50;0.82;;;;;;;15.24;100.00;97761.63;18442590;32;20093;-59
2023/08/09 00:23:07;;;;;;;1.70;0.93;;;;;;;15.19;100.00;97753.53;18441614;32;20441;-58
2023/08/09 00:33:10;;;;;;;1.35;0.90;;;;;;;15.20;100.00;97753.25;18440933;32;20049;-58
2023/08/09 00:43:13;;;;;;;1.95;0.80;;;;;;;15.18;100.00;97725.50;18433556;32;20121;-58
2023/08/09 00:53:16;;;;;;;2.62;0.90;;;;;;;15.08;100.00;97714.78;18439184;32;20060;-58
2023/08/09 01:03:19;;;;;;;1.85;0.90;;;;;;;15.00;100.00;97734.53;18439062;32;20057;-58
2023/08/09 01:13:24;;;;;;;1.70;0.97;;;;;;;14.88;100.00;97757.56;18438289;32;20086;-58
2023/08/09 01:23:35;;;;;;;1.12;0.80;;;;;;;14.80;100.00;97758.25;18438002;32;20366;-58
2023/08/09 01:33:38;;;;;;;2.62;1.00;;;;;;;14.73;100.00;97746.91;18437679;32;20080;-58
2023/08/09 01:43:43;;;;;;;1.20;0.88;;;;;;;14.68;100.00;97747.78;18436492;32;20113;-58
2023/08/09 01:53:45;;;;;;;1.40;1.00;;;;;;;14.70;100.00;97745.59;18435488;32;20049;-58
2023/08/09 02:03:48;;;;;;;2.80;0.77;;;;;;;14.67;100.00;97756.25;18420784;32;20083;-58
2023/08/09 02:13:51;;;;;;;1.50;1.10;;;;;;;14.64;100.00;97763.09;18420491;32;20088;-58
2023/08/09 02:23:54;;;;;;;2.93;0.70;;;;;;;14.62;100.00;97757.12;18434312;32;20066;-58
2023/08/09 02:33:58;;;;;;;3.75;0.93;;;;;;;14.59;100.00;97765.84;18427383;32;20072;-58
2023/08/09 02:44:01;;;;;;;2.30;1.23;;;;;;;14.51;100.00;97770.06;18433173;32;20143;-58
2023/08/09 02:54:11;;;;;;;1.10;0.73;;;;;;;14.46;100.00;97772.00;18432162;32;20449;-58
2023/08/09 03:04:26;;;;;;;1.60;0.93;;;;;;;14.42;100.00;97777.25;18432426;32;20136;-58
2023/08/09 03:14:29;;;;;;;2.15;1.00;;;;;;;14.43;100.00;97784.31;18431732;32;20061;-58
2023/08/09 03:24:32;;;;;;;1.40;1.00;;;;;;;14.38;100.00;97787.91;18417514;32;20057;-58
2023/08/09 03:34:35;;;;;;;1.10;0.80;;;;;;;14.39;100.00;97792.25;18416908;32;20488;-58
2023/08/09 03:44:38;;;;;;;3.20;1.02;;;;;;;14.38;100.00;97803.41;18430575;32;20378;-58
2023/08/09 03:54:41;;;;;;;1.98;0.90;;;;;;;14.33;100.00;97817.06;18430297;32;20115;-58
2023/08/09 04:04:44;;;;;;;2.50;1.03;;;;;;;14.36;100.00;97817.31;18430096;32;20179;-58
2023/08/09 04:14:47;;;;;;;1.10;0.80;;;;;;;14.42;100.00;97831.66;18429737;32;20053;-59
2023/08/09 04:24:50;;;;;;;1.10;0.90;;;;;;;14.40;100.00;97840.12;18422917;32;20073;-59
2023/08/09 04:34:53;;;;;;;1.83;1.10;;;;;;;14.44;100.00;97834.88;18439435;32;20445;-59
2023/08/09 04:44:59;;;;;;;1.35;0.73;;;;;;;14.47;100.00;97839.75;18440255;32;20061;-59
2023/08/09 04:55:05;;;;;;;1.95;0.80;;;;;;;14.54;100.00;97828.53;18373905;32;20384;-59
2023/08/09 05:05:14;;;;;;;2.30;1.00;;;;;;;14.60;100.00;97843.66;18374954;32;20080;-59
2023/08/09 05:15:20;;;;;;;1.37;0.90;;;;;;;14.70;100.00;97837.31;18374310;32;20049;-59
2023/08/09 05:25:26;;;;;;;2.62;0.90;;;;;;;14.73;100.00;97847.59;18373478;32;20076;-59
2023/08/09 05:35:38;;;;;;;1.58;0.95;;;;;;;14.80;100.00;97853.53;18373216;32;20095;-59
2023/08/09 05:45:46;;;;;;;1.50;1.08;;;;;;;14.92;100.00;97844.91;18371472;32;20061;-59
2023/08/09 05:55:53;;;;;;;1.30;0.90;;;;;;;15.04;100.00;97841.75;18421966;32;20054;-59
2023/08/09 06:06:04;;;;;;;3.53;0.90;;;;;;;15.21;100.00;97849.38;18435319;32;20111;-59
2023/08/09 06:16:11;;;;;;;1.00;0.70;;;;;;;15.33;100.00;97866.06;18434707;32;20059;-59
2023/08/09 06:26:15;;;;;;;1.02;0.85;;;;;;;15.43;100.00;97881.47;18434088;32;20049;-59
2023/08/09 06:36:23;;;;;;;1.70;1.00;;;;;;;15.45;100.00;97890.16;18419340;32;20079;-59
2023/08/09 06:46:27;;;;;;;2.78;1.17;;;;;;;15.51;100.00;97901.78;18432723;32;20061;-59
2023/08/09 06:56:31;;;;;;;2.05;1.20;;;;;;;15.61;100.00;97893.44;18418795;32;20468;-59
2023/08/09 07:06:37;;;;;;;1.73;0.95;;;;;;;15.71;100.00;97915.06;18425075;32;20052;-59
2023/08/09 07:16:40;;;;;;;1.77;1.13;;;;;;;15.75;100.00;97931.66;18417328;32;20053;-59
2023/08/09 07:26:43;;;;;;;1.52;0.80;;;;;;;15.85;100.00;97936.97;18431353;32;20096;-59
2023/08/09 07:36:46;;;;;;;4.30;1.00;;;;;;;16.14;100.00;97921.50;18417012;32;20064;-59
2023/08/09 07:46:49;;;;;;;0.93;0.70;;;;;;;16.42;100.00;97930.53;18430282;32;20045;-59
2023/08/09 07:56:52;;;;;;;1.58;0.82;;;;;;;17.02;100.00;97931.53;18430457;32;20050;-59
2023/08/09 08:06:57;;;;;;;1.65;1.00;;;;;;;17.54;100.00;97936.69;18423018;32;20053;-59
2023/08/09 08:17:02;;;;;;;2.20;1.27;;;;;;;17.88;100.00;97943.53;18441911;32;20354;-59
2023/08/09 08:27:06;;;;;;;2.28;1.30;;;;;;;18.26;100.00;97952.16;18441194;32;20046;-59
2023/08/09 08:37:13;;;;;;;5.53;1.40;;;;;;;18.81;100.00;97952.88;18427115;32;20041;-59
2023/08/09 08:47:16;;;;;;;1.92;1.17;;;;;;;19.15;100.00;97947.88;18440064;32;20049;-59
2023/08/09 08:57:20;;;;;;;;;;;;;;;19.59;100.00;97932.25;18433402;32;20490;-59
2023/08/09 09:07:23;;;;;;;2.23;1.10;;;;;;;20.26;100.00;97939.12;18424997;32;19986;-59
2023/08/09 09:17:27;;;;;;;1.60;0.95;;;;;;;20.75;100.00;97916.03;18424270;32;20094;-59
2023/08/09 09:27:32;;;;;;;1.52;1.00;;;;;;;21.27;100.00;97926.69;18437785;32;20049;-59
2023/08/09 09:37:36;;;;;;;1.42;0.82;;;;;;;21.52;100.00;97932.34;18437320;32;20478;-59
2023/08/09 09:47:40;;;;;;;2.35;1.00;;;;;;;21.96;100.00;97920.97;18436349;32;20053;-59
2023/08/09 09:57:44;;;;;;;2.30;0.90;;;;;;;22.18;100.00;97911.50;18435661;32;20404;-59
2023/08/09 10:07:51;;;;;;;1.80;0.90;;;;;;;22.24;96.20;97912.91;18435321;32;20053;-59
2023/08/09 10:18:02;;;;;;;4.07;1.17;;;;;;;22.47;96.62;97907.81;18434919;32;20102;-59
2023/08/09 10:28:06;;;;;;;2.60;1.30;;;;;;;22.63;82.42;97926.41;18433872;32;20046;-59
2023/08/09 10:38:13;;;;;;;1.48;0.98;;;;;;;22.56;94.24;97924.22;18433397;32;20098;-59
2023/08/09 10:48:25;;;;;;;1.40;0.85;;;;;;;22.46;90.19;97930.16;18432613;32;20094;-59
2023/08/09 10:58:29;;;;;;;2.60;1.10;;;;;;;22.25;94.17;97925.50;18418703;32;20441;-59
2023/08/09 11:08:34;;;;;;;2.05;1.20;;;;;;;22.48;91.42;97917.66;18431839;32;20054;-59
2023/08/09 11:18:37;;;;;;;1.27;0.70;;;;;;;22.60;83.15;97916.09;18431338;32;20075;-59
2023/08/09 11:28:41;;;;;;;1.52;1.02;;;;;;;22.65;84.77;97922.16;18416925;32;20416;-59
2023/08/09 11:38:45;;;;;;;2.45;1.10;;;;;;;22.60;79.32;97922.38;18407663;32;20034;-59
2023/08/09 11:48:51;;;;;;;2.12;1.15;;;;;;;22.60;85.06;97927.91;18443433;32;20073;-59
2023/08/09 11:58:58;;;;;;;2.72;1.20;;;;;;;22.54;77.60;97929.25;18443468;32;20143;-59
2023/08/09 12:09:34;;;;;;;3.30;1.23;;;;;;;22.88;80.61;97924.44;18443090;32;20120;-59
2023/08/09 12:19:38;;;;;;;5.00;1.05;;;;;;;22.92;73.34;97930.09;18442195;32;20049;-59
2023/08/09 12:29:42;;;;;;;2.22;0.82;;;;;;;23.19;71.27;97920.31;18427870;32;20090;-59
2023/08/09 12:39:49;;;;;;;2.75;1.10;;;;;;;23.41;65.50;97919.00;18419307;32;20094;-59
2023/08/09 12:49:52;;;;;;;1.10;0.75;;;;;;;23.62;64.05;97932.62;18439993;32;20083;-58
2023/08/09 12:59:57;;;;;;;2.65;1.17;;;;;;;24.05;70.20;97935.00;18439321;32;20061;-59
2023/08/09 13:10:01;;;;;;;2.95;1.05;;;;;;;24.49;67.95;97944.06;18438936;32;20053;-59
2023/08/09 13:20:12;;;;;;;2.35;0.95;;;;;;;24.63;67.39;97943.66;18438746;32;20100;-59
2023/08/09 13:30:16;;;;;;;3.67;1.12;;;;;;;25.43;67.87;97934.47;18437909;32;20069;-59
2023/08/09 13:40:20;;;;;;;2.40;1.17;;;;;;;26.06;60.98;97943.69;18437133;32;20331;-59
2023/08/09 13:50:28;;;;;;;1.90;1.15;;;;;;;26.64;61.32;97940.78;18436306;32;20049;-59
2023/08/09 14:00:32;;;;;;;3.00;1.00;;;;;;;27.61;57.52;97952.56;18421630;32;20089;-59
2023/08/09 14:10:36;;;;;;;1.27;1.00;;;;;;;27.59;55.14;97957.69;18435312;32;20087;-59
2023/08/09 14:20:39;;;;;;;2.47;1.00;;;;;;;27.94;50.88;97967.66;18434531;32;20049;-58
2023/08/09 14:30:43;;;;;;;1.48;1.15;;;;;;;28.42;49.18;97955.88;18413167;32;20053;-58
2023/08/09 14:40:47;;;;;;;1.87;0.85;;;;;;;28.00;48.66;97952.28;18419390;32;20050;-58
2023/08/09 14:50:54;;;;;;;1.00;0.82;;;;;;;27.09;51.54;97966.06;18432636;32;20380;-58
2023/08/09 15:00:57;;;;;;;1.48;0.98;;;;;;;27.34;49.57;97952.56;18432713;32;20418;-58
2023/08/09 15:11:03;;;;;;;3.33;1.10;;;;;;;26.26;50.68;97961.88;18432378;32;20075;-58
2023/08/09 15:21:06;;;;;;;1.62;1.12;;;;;;;25.86;53.29;97969.41;18432166;32;20468;-58
2023/08/09 15:31:10;;;;;;;1.95;1.00;;;;;;;25.52;60.05;97971.84;18430734;32;20053;-58
2023/08/09 15:41:13;;;;;;;1.83;1.27;;;;;;;25.01;58.81;97982.88;18430996;32;20091;-58
2023/08/09 15:51:20;;;;;;;2.40;1.30;;;;;;;24.39;68.28;97972.22;18417806;32;20041;-58
2023/08/09 16:01:24;;;;;;;1.95;1.10;;;;;;;24.48;70.80;97977.59;18430356;32;20083;-58
2023/08/09 16:11:28;;;;;;;1.98;1.05;;;;;;;24.37;76.23;97982.84;18429992;32;20327;-58
2023/08/09 16:21:32;;;;;;;2.37;1.37;;;;;;;24.49;68.23;97998.56;18396270;32;20065;-58
2023/08/09 16:31:36;;;;;;;1.75;1.00;;;;;;;24.08;71.96;98000.59;18440510;32;20062;-58
2023/08/09 16:41:40;;;;;;;2.53;1.25;;;;;;;23.89;80.87;98002.06;18440692;32;20098;-58
2023/08/09 16:51:44;;;;;;;1.85;1.25;;;;;;;23.74;77.68;98003.56;18439757;32;20098;-58
2023/08/09 17:01:50;;;;;;;2.25;1.05;;;;;;;23.44;78.91;98012.13;18425785;32;20113;-58
2023/08/09 17:11:54;;;;;;;1.58;1.10;;;;;;;23.21;89.66;98014.56;18439028;32;20100;-58
2023/08/09 17:21:58;;;;;;;1.25;1.00;;;;;;;23.12;91.69;98000.06;18424215;32;20053;-58
2023/08/09 17:32:02;;;;;;;1.73;1.10;;;;;;;22.95;95.44;98001.88;18437721;32;20079;-58
2023/08/09 17:42:06;;;;;;;2.35;1.10;;;;;;;22.58;100.00;98003.78;18423330;32;20089;-58
2023/08/09 17:52:10;;;;;;;1.23;0.93;;;;;;;22.09;100.00;97996.16;18409368;32;20057;-58
2023/08/09 18:02:18;;;;;;;1.20;0.88;;;;;;;21.63;100.00;98007.84;18422015;32;20052;-58
2023/08/09 18:12:21;;;;;;;1.30;0.82;;;;;;;21.24;100.00;97998.06;18428770;32;20086;-58
2023/08/09 18:22:24;;;;;;;1.90;1.12;;;;;;;20.86;100.00;98004.37;18420940;32;20113;-58
2023/08/09 18:32:30;;;;;;;1.37;1.00;;;;;;;20.44;100.00;98018.72;18433854;32;20073;-58
2023/08/09 18:42:34;;;;;;;1.33;1.00;;;;;;;20.03;100.00;98018.13;18433562;32;20068;-58
2023/08/09 18:52:40;;;;;;;;;;;;;;;19.68;100.00;98020.00;18419180;32;20069;-58
2023/08/09 19:02:44;;;;;;;2.42;1.40;;;;;;;19.27;100.00;98022.06;18432848;32;19944;-58
2023/08/09 19:12:49;;;;;;;2.15;1.15;;;;;;;18.90;100.00;98033.22;18432328;32;20357;-58
2023/08/09 19:22:54;;;;;;;2.95;1.80;;;;;;;18.59;100.00;98035.94;18417807;32;20463;-58
2023/08/09 19:32:57;;;;;;;2.78;1.30;;;;;;;18.26;100.00;98042.50;18417113;32;20069;-58
2023/08/09 19:43:01;;;;;;;2.30;1.20;;;;;;;17.97;100.00;98051.13;18430860;32;20437;-58
2023/08/09 19:53:03;;;;;;;7.97;5.53;;;;;;;17.68;100.00;98037.81;18404092;32;20065;-58
2023/08/09 20:03:06;;;;;;;5.37;2.35;;;;;;;17.42;100.00;98060.25;18411440;32;20058;-58
2023/08/09 20:13:09;;;;;;;2.47;1.92;;;;;;;17.16;100.00;98059.97;18415730;32;20053;-58
2023/08/09 20:23:13;;;;;;;5.95;3.90;;;;;;;16.93;100.00;98068.84;18441903;32;20061;-57
2023/08/09 20:33:16;;;;;;;3.97;2.30;;;;;;;16.73;100.00;98063.72;18427922;32;20425;-57
2023/08/09 20:43:21;;;;;;;2.53;1.33;;;;;;;16.52;100.00;98064.06;18440875;32;20095;-57
2023/08/09 20:53:25;;;;;;;2.12;1.52;;;;;;;16.35;100.00;98063.81;18424151;32;20106;-58
2023/08/09 21:03:27;;;;;;;;;;;;;;;16.23;100.00;98067.03;18436120;32;20072;-58
2023/08/09 21:13:30;;;;;;;1.90;1.25;;;;;;;16.07;100.00;98074.63;18438871;32;19945;-57
2023/08/09 21:23:33;;;;;;;2.37;1.20;;;;;;;15.90;100.00;98070.50;18424339;32;20057;-57
2023/08/09 21:33:39;;;;;;;2.33;1.55;;;;;;;15.75;100.00;98071.50;18438235;32;20057;-57
2023/08/09 21:43:43;;;;;;;2.90;1.60;;;;;;;15.65;100.00;98068.09;18437177;32;20060;-57
2023/08/09 21:53:47;;;;;;;2.60;1.80;;;;;;;15.64;100.00;98069.22;18436265;32;20079;-57
2023/08/09 22:03:50;;;;;;;2.47;1.80;;;;;;;15.75;100.00;98071.50;18421598;32;20037;-58
2023/08/09 22:13:54;;;;;;;;;;;;;;;15.85;100.00;98084.22;18435635;32;20058;-57
2023/08/09 22:23:59;;;;;;;2.25;1.55;;;;;;;15.91;100.00;98085.78;18434169;32;19967;-58
2023/08/09 22:34:03;;;;;;;2.22;1.62;;;;;;;16.00;100.00;98091.38;18420498;32;20049;-58
2023/08/09 22:44:07;;;;;;;1.37;1.10;;;;;;;16.08;100.00;98087.16;18427251;32;20126;-58
2023/08/09 22:54:11;;;;;;;3.50;1.43;;;;;;;16.10;100.00;98101.31;18432628;32;20082;-58
2023/08/09 23:04:14;;;;;;;1.40;0.93;;;;;;;16.18;100.00;98095.19;18432509;32;20049;-58
2023/08/09 23:14:17;;;;;;;2.08;1.37;;;;;;;16.22;100.00;98104.41;18431970;32;20183;-58
2023/08/09 23:24:19;;;;;;;2.12;1.33;;;;;;;16.31;100.00;98099.09;18417631;32;20473;-58
2023/08/09 23:34:22;;;;;;;2.22;1.30;;;;;;;16.35;100.00;98104.75;18431166;32;20057;-58
2023/08/09 23:44:25;;;;;;;1.75;1.40;;;;;;;16.37;100.00;98110.75;18430668;32;20053;-58
2023/08/09 23:54:28;;;;;;;1.90;1.23;;;;;;;16.36;100.00;98104.47;18365816;32;20099;-58
